createdAt,value
2018-08-24T00:00:35.248Z,22.68
2018-08-24T00:01:35.184Z,22.67
2018-08-24T00:02:35.392Z,22.67
2018-08-24T00:03:35.157Z,22.68
2018-08-24T00:04:35.228Z,22.68
2018-08-24T00:05:35.275Z,22.71
2018-08-24T00:06:35.195Z,22.7
2018-08-24T00:07:35.252Z,22.67
2018-08-24T00:08:35.499Z,22.66
2018-08-24T00:09:35.284Z,22.65
2018-08-24T00:10:35.361Z,22.63
2018-08-24T00:11:35.276Z,22.61
2018-08-24T00:12:35.163Z,22.58
2018-08-24T00:13:35.195Z,22.58
2018-08-24T00:14:35.248Z,22.56
2018-08-24T00:15:35.306Z,22.51
2018-08-24T00:16:35.268Z,22.5
2018-08-24T00:17:35.220Z,22.47
2018-08-24T00:18:35.177Z,22.45
2018-08-24T00:19:35.177Z,22.44
2018-08-24T00:20:35.244Z,22.45
2018-08-24T00:21:35.486Z,22.46
2018-08-24T00:22:35.260Z,22.47
2018-08-24T00:23:35.360Z,22.47
2018-08-24T00:24:35.169Z,22.47
2018-08-24T00:25:35.209Z,22.47
2018-08-24T00:26:35.193Z,22.47
2018-08-24T00:27:35.182Z,22.45
2018-08-24T00:28:35.586Z,22.44
2018-08-24T00:29:35.194Z,22.42
2018-08-24T00:30:35.311Z,22.39
2018-08-24T00:31:35.793Z,22.37
2018-08-24T00:32:35.328Z,22.37
2018-08-24T00:33:35.284Z,22.37
2018-08-24T00:34:35.229Z,22.39
2018-08-24T00:35:35.218Z,22.4
2018-08-24T00:36:35.407Z,22.41
2018-08-24T00:37:35.320Z,22.39
2018-08-24T00:38:35.222Z,22.41
2018-08-24T00:39:35.311Z,22.41
2018-08-24T00:40:35.391Z,22.38
2018-08-24T00:41:37.160Z,22.4
2018-08-24T00:42:35.682Z,22.38
2018-08-24T00:43:35.199Z,22.41
2018-08-24T00:44:35.215Z,22.4
2018-08-24T00:45:35.194Z,22.38
2018-08-24T00:46:35.486Z,22.41
2018-08-24T00:47:35.302Z,22.42
2018-08-24T00:48:35.730Z,22.4
2018-08-24T00:49:35.263Z,22.43
2018-08-24T00:50:35.361Z,22.43
2018-08-24T00:51:35.395Z,22.43
2018-08-24T00:52:35.219Z,22.42
2018-08-24T00:53:35.311Z,22.44
2018-08-24T00:54:35.341Z,22.43
2018-08-24T00:55:35.321Z,22.44
2018-08-24T00:56:35.240Z,22.43
2018-08-24T00:57:35.278Z,22.41
2018-08-24T00:58:35.385Z,22.42
2018-08-24T00:59:35.243Z,22.41
2018-08-24T01:00:35.448Z,22.42
2018-08-24T01:01:35.241Z,22.43
2018-08-24T01:02:35.283Z,22.42
2018-08-24T01:03:35.272Z,22.41
2018-08-24T01:04:35.349Z,22.42
2018-08-24T01:05:35.368Z,22.4
2018-08-24T01:06:35.263Z,22.38
2018-08-24T01:07:36.003Z,22.35
2018-08-24T01:08:35.533Z,22.34
2018-08-24T01:09:35.490Z,22.35
2018-08-24T01:10:35.287Z,22.34
2018-08-24T01:11:35.569Z,22.34
2018-08-24T01:12:35.293Z,22.34
2018-08-24T01:13:35.424Z,22.34
2018-08-24T01:14:35.329Z,22.33
2018-08-24T01:15:35.395Z,22.31
2018-08-24T01:16:35.400Z,22.32
2018-08-24T01:17:35.292Z,22.31
2018-08-24T01:18:35.245Z,22.31
2018-08-24T01:19:35.290Z,22.3
2018-08-24T01:20:35.287Z,22.32
2018-08-24T01:21:35.294Z,22.31
2018-08-24T01:22:35.270Z,22.33
2018-08-24T01:23:35.292Z,22.32
2018-08-24T01:24:35.258Z,22.31
2018-08-24T01:25:35.266Z,22.32
2018-08-24T01:26:35.312Z,22.31
2018-08-24T01:27:35.231Z,22.33
2018-08-24T01:28:35.251Z,22.31
2018-08-24T01:29:35.395Z,22.3
2018-08-24T01:30:35.298Z,22.3
2018-08-24T01:31:35.314Z,22.3
2018-08-24T01:32:35.282Z,22.29
2018-08-24T01:33:35.290Z,22.3
2018-08-24T01:34:35.263Z,22.29
2018-08-24T01:35:35.329Z,22.28
2018-08-24T01:36:35.567Z,22.27
2018-08-24T01:37:35.302Z,22.27
2018-08-24T01:38:35.302Z,22.26
2018-08-24T01:39:35.265Z,22.23
2018-08-24T01:40:35.391Z,22.15
2018-08-24T01:41:35.263Z,22.16
2018-08-24T01:42:35.249Z,22.17
2018-08-24T01:43:35.300Z,22.17
2018-08-24T01:44:35.759Z,22.19
2018-08-24T01:45:35.471Z,22.17
2018-08-24T01:46:35.292Z,22.16
2018-08-24T01:47:35.367Z,22.14
2018-08-24T01:48:35.415Z,22.11
2018-08-24T01:49:35.271Z,22.11
2018-08-24T01:50:35.388Z,22.1
2018-08-24T01:51:35.527Z,22.1
2018-08-24T01:52:35.428Z,22.1
2018-08-24T01:53:35.299Z,22.09
2018-08-24T01:54:35.345Z,22.06
2018-08-24T01:55:35.451Z,22.01
2018-08-24T01:56:35.457Z,22.03
2018-08-24T01:57:35.309Z,22.02
2018-08-24T01:58:35.338Z,22.04
2018-08-24T01:59:35.342Z,22.03
2018-08-24T02:00:35.413Z,22.02
2018-08-24T02:01:35.328Z,22.01
2018-08-24T02:02:35.385Z,22.02
2018-08-24T02:03:35.319Z,22.02
2018-08-24T02:04:35.713Z,22.01
2018-08-24T02:05:35.372Z,22.02
2018-08-24T02:06:35.380Z,22
2018-08-24T02:07:35.325Z,22
2018-08-24T02:08:35.498Z,22.01
2018-08-24T02:09:35.430Z,22.01
2018-08-24T02:10:35.400Z,21.97
2018-08-24T02:11:35.460Z,21.94
2018-08-24T02:12:35.319Z,21.92
2018-08-24T02:13:35.405Z,21.87
2018-08-24T02:14:36.348Z,21.86
2018-08-24T02:15:35.503Z,21.81
2018-08-24T02:16:35.463Z,21.8
2018-08-24T02:17:35.412Z,21.81
2018-08-24T02:18:35.297Z,21.81
2018-08-24T02:19:35.366Z,21.82
2018-08-24T02:20:35.383Z,21.82
2018-08-24T02:21:35.428Z,21.82
2018-08-24T02:22:35.700Z,21.82
2018-08-24T02:23:35.437Z,21.81
2018-08-24T02:24:35.443Z,21.81
2018-08-24T02:25:35.512Z,21.81
2018-08-24T02:26:35.449Z,21.81
2018-08-24T02:27:35.487Z,21.83
2018-08-24T02:28:35.367Z,21.84
2018-08-24T02:29:36.502Z,21.84
2018-08-24T02:30:35.462Z,21.83
2018-08-24T02:31:35.621Z,21.79
2018-08-24T02:32:35.381Z,21.79
2018-08-24T02:33:35.409Z,21.79
2018-08-24T02:34:35.481Z,21.79
2018-08-24T02:35:35.477Z,21.79
2018-08-24T02:36:35.494Z,21.79
2018-08-24T02:37:35.626Z,21.79
2018-08-24T02:38:35.505Z,21.79
2018-08-24T02:39:35.421Z,21.79
2018-08-24T02:40:35.457Z,21.77
2018-08-24T02:41:35.449Z,21.76
2018-08-24T02:42:35.635Z,21.73
2018-08-24T02:43:35.625Z,21.73
2018-08-24T02:44:35.511Z,21.73
2018-08-24T02:45:35.530Z,21.73
2018-08-24T02:46:35.474Z,21.72
2018-08-24T02:47:35.572Z,21.71
2018-08-24T02:48:35.427Z,21.7
2018-08-24T02:49:35.499Z,21.69
2018-08-24T02:50:35.585Z,21.66
2018-08-24T02:51:35.522Z,21.66
2018-08-24T02:52:35.436Z,21.66
2018-08-24T02:53:35.785Z,21.66
2018-08-24T02:54:35.441Z,21.66
2018-08-24T02:55:35.483Z,21.66
2018-08-24T02:56:35.513Z,21.66
2018-08-24T02:57:35.400Z,21.68
2018-08-24T02:58:35.488Z,21.67
2018-08-24T02:59:35.477Z,21.69
2018-08-24T03:00:35.522Z,21.68
2018-08-24T03:01:35.400Z,21.66
2018-08-24T03:02:35.754Z,21.67
2018-08-24T03:03:35.413Z,21.65
2018-08-24T03:04:35.416Z,21.65
2018-08-24T03:05:37.527Z,21.63
2018-08-24T03:06:35.424Z,21.6
2018-08-24T03:07:35.463Z,21.62
2018-08-24T03:08:35.423Z,21.58
2018-08-24T03:09:35.472Z,21.57
2018-08-24T03:10:35.604Z,21.54
2018-08-24T03:11:35.469Z,21.52
2018-08-24T03:12:35.390Z,21.52
2018-08-24T03:13:35.542Z,21.56
2018-08-24T03:14:35.501Z,21.54
2018-08-24T03:15:35.520Z,21.56
2018-08-24T03:16:35.428Z,21.55
2018-08-24T03:17:35.410Z,21.52
2018-08-24T03:18:35.399Z,21.54
2018-08-24T03:19:35.490Z,21.48
2018-08-24T03:20:35.488Z,21.46
2018-08-24T03:21:35.894Z,21.47
2018-08-24T03:22:35.419Z,21.43
2018-08-24T03:23:35.434Z,21.4
2018-08-24T03:24:35.479Z,21.28
2018-08-24T03:25:35.553Z,21.25
2018-08-24T03:26:35.463Z,21.24
2018-08-24T03:27:35.606Z,21.21
2018-08-24T03:28:35.448Z,21.19
2018-08-24T03:29:35.431Z,21.21
2018-08-24T03:30:35.479Z,21.22
2018-08-24T03:31:35.571Z,21.21
2018-08-24T03:32:35.605Z,21.2
2018-08-24T03:33:36.098Z,21.19
2018-08-24T03:34:35.759Z,21.19
2018-08-24T03:35:35.562Z,21.11
2018-08-24T03:36:35.553Z,21.08
2018-08-24T03:37:35.414Z,21.08
2018-08-24T03:38:35.448Z,21.07
2018-08-24T03:39:35.487Z,21.08
2018-08-24T03:40:35.498Z,21.1
2018-08-24T03:41:35.507Z,21.07
2018-08-24T03:42:35.426Z,21.05
2018-08-24T03:43:35.481Z,21.06
2018-08-24T03:44:35.504Z,21.06
2018-08-24T03:45:35.633Z,21.04
2018-08-24T03:46:35.621Z,21.05
2018-08-24T03:47:35.584Z,20.99
2018-08-24T03:48:35.556Z,21
2018-08-24T03:50:00.210Z,21
2018-08-24T03:50:35.596Z,21.02
2018-08-24T03:51:35.446Z,21.01
2018-08-24T03:52:35.521Z,21.01
2018-08-24T03:53:36.172Z,21.01
2018-08-24T03:54:41.605Z,21.01
2018-08-24T03:55:35.527Z,20.98
2018-08-24T03:56:35.605Z,20.96
2018-08-24T03:57:35.499Z,20.97
2018-08-24T03:58:40.134Z,20.97
2018-08-24T03:59:47.420Z,20.98
2018-08-24T04:00:35.506Z,20.99
2018-08-24T04:01:37.903Z,20.99
2018-08-24T04:02:35.646Z,21
2018-08-24T04:03:35.571Z,21
2018-08-24T04:04:35.447Z,21.01
2018-08-24T04:05:35.530Z,21
2018-08-24T04:06:35.685Z,20.99
2018-08-24T04:07:35.598Z,20.99
2018-08-24T04:08:38.101Z,21
2018-08-24T04:09:35.498Z,21
2018-08-24T04:10:35.633Z,21
2018-08-24T04:11:35.496Z,21.01
2018-08-24T04:12:35.567Z,21.03
2018-08-24T04:13:35.574Z,21.04
2018-08-24T04:14:35.511Z,21.05
2018-08-24T04:15:35.764Z,21.06
2018-08-24T04:16:35.591Z,21.05
2018-08-24T04:17:35.499Z,21.07
2018-08-24T04:18:35.461Z,21.06
2018-08-24T04:19:36.971Z,21.06
2018-08-24T04:20:35.482Z,21.05
2018-08-24T04:21:35.669Z,21.04
2018-08-24T04:22:35.822Z,21.04
2018-08-24T04:23:35.583Z,20.99
2018-08-24T04:24:35.731Z,20.98
2018-08-24T04:25:36.673Z,20.98
2018-08-24T04:26:36.350Z,20.99
2018-08-24T04:27:35.545Z,20.94
2018-08-24T04:28:35.797Z,20.89
2018-08-24T04:29:35.604Z,20.9
2018-08-24T04:30:35.603Z,20.86
2018-08-24T04:31:35.772Z,20.86
2018-08-24T04:32:36.156Z,20.87
2018-08-24T04:33:35.705Z,20.87
2018-08-24T04:34:36.970Z,20.84
2018-08-24T04:35:35.731Z,20.85
2018-08-24T04:36:35.594Z,20.85
2018-08-24T04:37:35.545Z,20.84
2018-08-24T04:38:35.506Z,20.83
2018-08-24T04:39:35.708Z,20.83
2018-08-24T04:40:35.610Z,20.83
2018-08-24T04:41:35.934Z,20.82
2018-08-24T04:42:35.574Z,20.81
2018-08-24T04:43:35.534Z,20.83
2018-08-24T04:44:35.686Z,20.82
2018-08-24T04:45:36.934Z,20.79
2018-08-24T04:46:35.747Z,20.8
2018-08-24T04:47:35.679Z,20.8
2018-08-24T04:48:35.619Z,20.78
2018-08-24T04:49:36.219Z,20.79
2018-08-24T04:50:35.950Z,20.81
2018-08-24T04:51:37.679Z,20.82
2018-08-24T04:52:35.642Z,20.84
2018-08-24T04:53:35.537Z,20.87
2018-08-24T04:54:35.586Z,20.88
2018-08-24T04:55:35.803Z,20.89
2018-08-24T04:56:35.762Z,20.88
2018-08-24T04:57:35.752Z,20.9
2018-08-24T04:58:35.549Z,20.94
2018-08-24T04:59:35.668Z,20.95
2018-08-24T05:00:35.889Z,20.95
2018-08-24T05:01:35.647Z,20.95
2018-08-24T05:02:35.690Z,20.94
2018-08-24T05:03:35.732Z,20.94
2018-08-24T05:04:35.747Z,20.95
2018-08-24T05:05:36.950Z,20.95
2018-08-24T05:06:36.022Z,20.97
2018-08-24T05:07:35.776Z,20.97
2018-08-24T05:08:35.630Z,20.96
2018-08-24T05:09:35.685Z,20.95
2018-08-24T05:10:36.078Z,20.93
2018-08-24T05:11:35.900Z,20.9
2018-08-24T05:12:35.695Z,20.87
2018-08-24T05:13:35.923Z,20.85
2018-08-24T05:14:35.618Z,20.85
2018-08-24T05:15:35.797Z,20.78
2018-08-24T05:16:35.661Z,20.75
2018-08-24T05:17:35.577Z,20.76
2018-08-24T05:18:35.676Z,20.74
2018-08-24T05:19:35.625Z,20.76
2018-08-24T05:20:35.724Z,20.73
2018-08-24T05:21:35.634Z,20.65
2018-08-24T05:22:35.929Z,20.64
2018-08-24T05:23:35.617Z,20.61
2018-08-24T05:24:35.937Z,20.59
2018-08-24T05:25:36.303Z,20.59
2018-08-24T05:26:35.713Z,20.54
2018-08-24T05:27:35.550Z,20.54
2018-08-24T05:28:36.337Z,20.57
2018-08-24T05:29:35.664Z,20.58
2018-08-24T05:30:36.300Z,20.54
2018-08-24T05:31:35.706Z,20.56
2018-08-24T05:32:35.722Z,20.61
2018-08-24T05:33:36.590Z,20.67
2018-08-24T05:34:35.726Z,20.69
2018-08-24T05:35:36.459Z,20.73
2018-08-24T05:36:35.708Z,20.67
2018-08-24T05:37:35.678Z,20.68
2018-08-24T05:38:35.644Z,20.73
2018-08-24T05:39:35.632Z,20.75
2018-08-24T05:40:35.758Z,20.76
2018-08-24T05:41:36.098Z,20.75
2018-08-24T05:42:38.456Z,20.79
2018-08-24T05:43:35.582Z,20.78
2018-08-24T05:44:35.697Z,20.8
2018-08-24T05:45:35.684Z,20.82
2018-08-24T05:46:35.771Z,20.86
2018-08-24T05:47:35.761Z,20.87
2018-08-24T05:48:35.702Z,20.91
2018-08-24T05:49:36.082Z,20.9
2018-08-24T05:50:35.655Z,20.86
2018-08-24T05:51:36.394Z,20.87
2018-08-24T05:52:36.453Z,20.85
2018-08-24T05:53:35.599Z,20.85
2018-08-24T05:54:35.764Z,20.83
2018-08-24T05:55:36.639Z,20.73
2018-08-24T05:56:35.632Z,20.71
2018-08-24T05:57:36.514Z,20.73
2018-08-24T05:58:35.695Z,20.66
2018-08-24T05:59:35.846Z,20.66
2018-08-24T06:00:35.748Z,20.61
2018-08-24T06:01:36.489Z,20.6
2018-08-24T06:02:35.815Z,20.59
2018-08-24T06:03:35.771Z,20.6
2018-08-24T06:04:35.759Z,20.61
2018-08-24T06:05:36.142Z,20.61
2018-08-24T06:06:35.686Z,20.61
2018-08-24T06:07:36.077Z,20.62
2018-08-24T06:08:35.775Z,20.64
2018-08-24T06:09:35.672Z,20.67
2018-08-24T06:10:35.722Z,20.68
2018-08-24T06:11:35.948Z,20.68
2018-08-24T06:12:35.807Z,20.68
2018-08-24T06:13:35.808Z,20.67
2018-08-24T06:14:35.627Z,20.61
2018-08-24T06:15:35.748Z,20.61
2018-08-24T06:16:36.013Z,20.65
2018-08-24T06:17:35.812Z,20.68
2018-08-24T06:18:35.745Z,20.63
2018-08-24T06:19:35.798Z,20.62
2018-08-24T06:20:35.851Z,20.61
2018-08-24T06:21:35.930Z,20.61
2018-08-24T06:22:35.868Z,20.6
2018-08-24T06:23:35.882Z,20.57
2018-08-24T06:24:36.976Z,20.55
2018-08-24T06:25:35.859Z,20.55
2018-08-24T06:26:35.784Z,20.53
2018-08-24T06:27:36.276Z,20.49
2018-08-24T06:28:35.841Z,20.51
2018-08-24T06:29:35.805Z,20.53
2018-08-24T06:30:35.729Z,20.54
2018-08-24T06:31:36.568Z,20.56
2018-08-24T06:32:35.787Z,20.55
2018-08-24T06:33:36.161Z,20.56
2018-08-24T06:34:35.662Z,20.6
2018-08-24T06:35:35.857Z,20.62
2018-08-24T06:36:35.669Z,20.65
2018-08-24T06:37:35.675Z,20.66
2018-08-24T06:38:35.748Z,20.66
2018-08-24T06:39:35.684Z,20.67
2018-08-24T06:40:35.805Z,20.72
2018-08-24T06:41:35.789Z,20.72
2018-08-24T06:42:35.672Z,20.7
2018-08-24T06:43:36.605Z,20.71
2018-08-24T06:44:36.831Z,20.68
2018-08-24T06:45:35.819Z,20.67
2018-08-24T06:46:35.867Z,20.68
2018-08-24T06:47:36.517Z,20.68
2018-08-24T06:48:36.429Z,20.66
2018-08-24T06:49:35.916Z,20.66
2018-08-24T06:50:35.809Z,20.6
2018-08-24T06:51:35.674Z,20.6
2018-08-24T06:52:36.510Z,20.62
2018-08-24T06:53:37.242Z,20.6
2018-08-24T06:54:35.705Z,20.65
2018-08-24T06:55:35.891Z,20.64
2018-08-24T06:56:35.718Z,20.67
2018-08-24T06:57:35.710Z,20.69
2018-08-24T06:58:37.935Z,20.67
2018-08-24T06:59:36.341Z,20.72
2018-08-24T07:00:35.805Z,20.73
2018-08-24T07:01:35.746Z,20.72
2018-08-24T07:02:36.040Z,20.76
2018-08-24T07:03:35.819Z,20.76
2018-08-24T07:04:35.802Z,20.77
2018-08-24T07:05:36.399Z,20.79
2018-08-24T07:06:35.713Z,20.73
2018-08-24T07:07:35.675Z,20.75
2018-08-24T07:08:35.681Z,20.8
2018-08-24T07:09:35.924Z,20.81
2018-08-24T07:10:35.972Z,20.85
2018-08-24T07:11:35.858Z,20.85
2018-08-24T07:12:35.940Z,20.81
2018-08-24T07:13:36.777Z,20.75
2018-08-24T07:14:36.768Z,20.84
2018-08-24T07:15:35.742Z,20.92
2018-08-24T07:16:35.717Z,20.95
2018-08-24T07:17:35.816Z,20.91
2018-08-24T07:18:35.769Z,20.87
2018-08-24T07:19:35.863Z,20.94
2018-08-24T07:20:35.758Z,21.02
2018-08-24T07:21:37.039Z,21.05
2018-08-24T07:22:35.826Z,21.05
2018-08-24T07:23:35.807Z,21.03
2018-08-24T07:24:35.843Z,21.1
2018-08-24T07:25:35.825Z,21.16
2018-08-24T07:26:36.363Z,21.22
2018-08-24T07:27:35.739Z,21.2
2018-08-24T07:28:35.725Z,21.23
2018-08-24T07:29:36.293Z,21.22
2018-08-24T07:30:36.369Z,21.24
2018-08-24T07:31:35.794Z,21.28
2018-08-24T07:32:36.350Z,21.3
2018-08-24T07:33:35.876Z,21.34
2018-08-24T07:34:36.534Z,21.38
2018-08-24T07:35:36.008Z,21.33
2018-08-24T07:36:35.763Z,21.29
2018-08-24T07:37:35.797Z,21.35
2018-08-24T07:38:36.148Z,21.39
2018-08-24T07:39:35.841Z,21.39
2018-08-24T07:40:35.752Z,21.39
2018-08-24T07:41:37.531Z,21.41
2018-08-24T07:42:35.715Z,21.47
2018-08-24T07:43:35.974Z,21.47
2018-08-24T07:44:35.744Z,21.51
2018-08-24T07:45:35.801Z,21.53
2018-08-24T07:46:35.852Z,21.47
2018-08-24T07:47:35.941Z,21.45
2018-08-24T07:48:35.730Z,21.47
2018-08-24T07:49:35.761Z,21.47
2018-08-24T07:50:35.759Z,21.5
2018-08-24T07:51:35.874Z,21.51
2018-08-24T07:52:35.862Z,21.54
2018-08-24T07:53:35.845Z,21.53
2018-08-24T07:54:35.764Z,21.44
2018-08-24T07:55:35.984Z,21.51
2018-08-24T07:56:35.752Z,21.52
2018-08-24T07:57:35.781Z,21.46
2018-08-24T07:58:36.022Z,21.46
2018-08-24T07:59:35.782Z,21.49
2018-08-24T08:00:35.802Z,21.52
2018-08-24T08:01:35.823Z,21.49
2018-08-24T08:02:35.889Z,21.44
2018-08-24T08:03:36.154Z,21.46
2018-08-24T08:04:35.969Z,21.44
2018-08-24T08:05:35.759Z,21.43
2018-08-24T08:06:35.820Z,21.39
2018-08-24T08:07:35.908Z,21.43
2018-08-24T08:08:35.945Z,21.48
2018-08-24T08:09:35.811Z,21.52
2018-08-24T08:10:35.761Z,21.48
2018-08-24T08:11:35.771Z,21.53
2018-08-24T08:12:36.825Z,21.49
2018-08-24T08:13:35.767Z,21.47
2018-08-24T08:14:35.767Z,21.49
2018-08-24T08:15:36.057Z,21.5
2018-08-24T08:16:35.765Z,21.49
2018-08-24T08:17:35.919Z,21.5
2018-08-24T08:18:36.314Z,21.46
2018-08-24T08:19:35.885Z,21.38
2018-08-24T08:20:35.769Z,21.34
2018-08-24T08:21:35.745Z,21.32
2018-08-24T08:22:35.773Z,21.32
2018-08-24T08:23:35.808Z,21.25
2018-08-24T08:24:35.994Z,21.23
2018-08-24T08:25:35.769Z,21.26
2018-08-24T08:26:35.789Z,21.27
2018-08-24T08:27:35.821Z,21.29
2018-08-24T08:28:35.846Z,21.33
2018-08-24T08:29:35.914Z,21.3
2018-08-24T08:30:36.420Z,21.34
2018-08-24T08:31:35.827Z,21.37
2018-08-24T08:32:35.771Z,21.39
2018-08-24T08:33:35.909Z,21.4
2018-08-24T08:34:36.084Z,21.4
2018-08-24T08:35:35.947Z,21.44
2018-08-24T08:36:35.807Z,21.43
2018-08-24T08:37:36.185Z,21.41
2018-08-24T08:38:36.174Z,21.46
2018-08-24T08:39:35.805Z,21.45
2018-08-24T08:40:35.973Z,21.4
2018-08-24T08:41:35.967Z,21.36
2018-08-24T08:42:35.934Z,21.33
2018-08-24T08:43:35.830Z,21.34
2018-08-24T08:44:35.886Z,21.35
2018-08-24T08:45:35.841Z,21.34
2018-08-24T08:46:35.952Z,21.36
2018-08-24T08:47:35.921Z,21.32
2018-08-24T08:48:35.865Z,21.25
2018-08-24T08:49:36.109Z,21.24
2018-08-24T08:50:36.153Z,21.2
2018-08-24T08:51:35.844Z,21.21
2018-08-24T08:52:35.947Z,21.21
2018-08-24T08:53:36.868Z,21.18
2018-08-24T08:54:35.939Z,21.14
2018-08-24T08:55:35.882Z,21.15
2018-08-24T08:56:35.855Z,21.1
2018-08-24T08:57:36.012Z,21.06
2018-08-24T08:58:36.252Z,21.09
2018-08-24T08:59:35.798Z,21.09
2018-08-24T09:00:35.906Z,21.06
2018-08-24T09:01:36.128Z,21.04
2018-08-24T09:02:36.235Z,21.03
2018-08-24T09:03:35.927Z,21.03
2018-08-24T09:04:36.660Z,20.99
2018-08-24T09:05:35.964Z,20.99
2018-08-24T09:06:35.954Z,20.97
2018-08-24T09:07:36.179Z,20.9
2018-08-24T09:08:35.949Z,20.87
2018-08-24T09:09:36.034Z,20.88
2018-08-24T09:10:36.027Z,20.89
2018-08-24T09:11:36.198Z,20.86
2018-08-24T09:12:35.914Z,20.81
2018-08-24T09:13:36.186Z,20.75
2018-08-24T09:14:36.248Z,20.77
2018-08-24T09:15:36.023Z,20.68
2018-08-24T09:16:35.871Z,20.72
2018-08-24T09:17:35.850Z,20.69
2018-08-24T09:18:37.055Z,20.69
2018-08-24T09:19:35.939Z,20.68
2018-08-24T09:20:35.927Z,20.72
2018-08-24T09:21:35.886Z,20.7
2018-08-24T09:22:36.371Z,20.68
2018-08-24T09:23:35.922Z,20.54
2018-08-24T09:24:36.155Z,20.34
2018-08-24T09:25:36.695Z,20.24
2018-08-24T09:26:35.903Z,20.06
2018-08-24T09:27:36.002Z,20.01
2018-08-24T09:28:36.154Z,20.02
2018-08-24T09:29:35.883Z,19.99
2018-08-24T09:30:35.891Z,19.85
2018-08-24T09:31:36.061Z,19.83
2018-08-24T09:32:37.912Z,19.85
2018-08-24T09:33:35.866Z,19.82
2018-08-24T09:34:36.515Z,19.76
2018-08-24T09:35:35.925Z,19.59
2018-08-24T09:36:35.944Z,19.53
2018-08-24T09:37:35.911Z,19.4
2018-08-24T09:38:36.008Z,19.35
2018-08-24T09:39:35.907Z,19.15
2018-08-24T09:40:35.995Z,18.77
2018-08-24T09:41:35.901Z,18.39
2018-08-24T09:42:36.228Z,18.11
2018-08-24T09:43:35.878Z,17.81
2018-08-24T09:44:36.047Z,17.82
2018-08-24T09:45:36.018Z,17.77
2018-08-24T09:46:36.013Z,17.75
2018-08-24T09:47:35.971Z,17.69
2018-08-24T09:48:36.575Z,17.59
2018-08-24T09:49:35.994Z,17.57
2018-08-24T09:50:35.917Z,17.42
2018-08-24T09:51:36.038Z,17.32
2018-08-24T09:52:36.221Z,17.39
2018-08-24T09:53:36.313Z,17.31
2018-08-24T09:54:36.113Z,17.36
2018-08-24T09:55:35.934Z,17.37
2018-08-24T09:56:35.992Z,17.31
2018-08-24T09:57:35.961Z,17.39
2018-08-24T09:58:35.953Z,17.38
2018-08-24T09:59:35.917Z,17.41
2018-08-24T10:00:35.997Z,17.49
2018-08-24T10:01:36.374Z,17.57
2018-08-24T10:02:36.720Z,17.6
2018-08-24T10:03:36.000Z,17.64
2018-08-24T10:04:35.918Z,17.7
2018-08-24T10:05:36.232Z,17.67
2018-08-24T10:06:36.402Z,17.68
2018-08-24T10:07:36.146Z,17.62
2018-08-24T10:08:36.268Z,17.62
2018-08-24T10:09:36.105Z,17.65
2018-08-24T10:10:35.983Z,17.7
2018-08-24T10:11:36.189Z,17.73
2018-08-24T10:12:36.864Z,17.67
2018-08-24T10:13:35.958Z,17.63
2018-08-24T10:14:36.370Z,17.77
2018-08-24T10:16:36.180Z,17.79
2018-08-24T10:17:36.267Z,17.82
2018-08-24T10:18:36.068Z,17.82
2018-08-24T10:19:36.202Z,17.89
2018-08-24T10:20:37.105Z,17.88
2018-08-24T10:21:36.167Z,17.91
2018-08-24T10:22:36.194Z,17.81
2018-08-24T10:23:36.016Z,17.88
2018-08-24T10:24:36.089Z,17.98
2018-08-24T10:25:36.092Z,18.04
2018-08-24T10:26:36.186Z,18.05
2018-08-24T10:27:37.179Z,18.09
2018-08-24T10:28:35.993Z,17.96
2018-08-24T10:29:36.922Z,17.9
2018-08-24T10:30:36.167Z,17.97
2018-08-24T10:31:36.172Z,17.95
2018-08-24T10:32:35.969Z,17.86
2018-08-24T10:33:36.528Z,17.86
2018-08-24T10:34:36.283Z,17.95
2018-08-24T10:35:35.958Z,17.95
2018-08-24T10:36:36.192Z,17.96
2018-08-24T10:37:36.406Z,17.91
2018-08-24T10:38:36.297Z,17.82
2018-08-24T10:39:36.333Z,17.81
2018-08-24T10:40:36.091Z,17.82
2018-08-24T10:41:36.286Z,17.82
2018-08-24T10:42:36.738Z,17.74
2018-08-24T10:43:35.953Z,17.81
2018-08-24T10:44:36.332Z,17.88
2018-08-24T10:45:36.450Z,17.92
2018-08-24T10:46:36.119Z,17.94
2018-08-24T10:47:36.642Z,17.88
2018-08-24T10:48:36.370Z,17.87
2018-08-24T10:49:36.070Z,17.93
2018-08-24T10:50:36.189Z,17.93
2018-08-24T10:51:36.740Z,17.95
2018-08-24T10:52:36.192Z,17.99
2018-08-24T10:53:36.185Z,18.02
2018-08-24T10:54:36.096Z,18.01
2018-08-24T10:55:36.588Z,18.11
2018-08-24T10:56:36.135Z,18.14
2018-08-24T10:57:36.308Z,18.16
2018-08-24T10:58:36.125Z,18.17
2018-08-24T10:59:36.047Z,18.16
2018-08-24T11:00:36.141Z,18.21
2018-08-24T11:01:36.052Z,18.26
2018-08-24T11:02:35.976Z,18.26
2018-08-24T11:03:36.167Z,18.28
2018-08-24T11:04:36.064Z,18.3
2018-08-24T11:05:36.070Z,18.33
2018-08-24T11:06:36.181Z,18.34
2018-08-24T11:07:37.051Z,18.4
2018-08-24T11:08:36.070Z,18.42
2018-08-24T11:09:36.077Z,18.43
2018-08-24T11:10:36.311Z,18.43
2018-08-24T11:11:36.214Z,18.48
2018-08-24T11:12:36.095Z,18.49
2018-08-24T11:13:36.115Z,18.52
2018-08-24T11:14:36.021Z,18.58
2018-08-24T11:15:36.159Z,18.43
2018-08-24T11:16:37.526Z,18.47
2018-08-24T11:17:36.376Z,18.51
2018-08-24T11:18:36.170Z,18.5
2018-08-24T11:19:36.065Z,18.54
2018-08-24T11:20:36.142Z,18.56
2018-08-24T11:21:36.099Z,18.58
2018-08-24T11:22:36.505Z,18.59
2018-08-24T11:23:36.023Z,18.62
2018-08-24T11:24:37.418Z,18.67
2018-08-24T11:25:36.390Z,18.7
2018-08-24T11:26:36.094Z,18.7
2018-08-24T11:27:36.233Z,18.74
2018-08-24T11:28:36.832Z,18.76
2018-08-24T11:29:36.045Z,18.81
2018-08-24T11:30:36.259Z,18.84
2018-08-24T11:31:36.237Z,18.87
2018-08-24T11:32:36.365Z,18.92
2018-08-24T11:33:36.174Z,18.95
2018-08-24T11:34:36.157Z,18.93
2018-08-24T11:35:36.124Z,18.98
2018-08-24T11:36:37.216Z,18.97
2018-08-24T11:37:36.021Z,19.01
2018-08-24T11:38:36.165Z,19.03
2018-08-24T11:39:36.335Z,19.02
2018-08-24T11:40:36.197Z,19.05
2018-08-24T11:41:36.444Z,19.09
2018-08-24T11:42:36.654Z,19.11
2018-08-24T11:43:36.234Z,19.1
2018-08-24T11:44:36.132Z,19.11
2018-08-24T11:45:36.684Z,19.15
2018-08-24T11:46:36.196Z,19.16
2018-08-24T11:47:36.575Z,19.17
2018-08-24T11:48:36.268Z,19.18
2018-08-24T11:49:36.208Z,19.19
2018-08-24T11:50:36.429Z,19.23
2018-08-24T11:51:36.382Z,19.27
2018-08-24T11:52:36.091Z,19.24
2018-08-24T11:53:36.221Z,19.28
2018-08-24T11:54:37.706Z,19.29
2018-08-24T11:55:36.033Z,19.17
2018-08-24T11:56:36.259Z,19.19
2018-08-24T11:57:36.326Z,19.22
2018-08-24T11:58:36.149Z,19.23
2018-08-24T11:59:36.123Z,19.24
2018-08-24T12:00:36.265Z,19.25
2018-08-24T12:01:36.342Z,19.3
2018-08-24T12:02:36.146Z,19.34
2018-08-24T12:03:36.596Z,19.32
2018-08-24T12:04:36.170Z,19.29
2018-08-24T12:05:36.258Z,19.31
2018-08-24T12:06:36.176Z,19.3
2018-08-24T12:07:36.266Z,19.23
2018-08-24T12:08:36.125Z,19.24
2018-08-24T12:09:37.317Z,19.26
2018-08-24T12:10:37.250Z,19.26
2018-08-24T12:11:36.143Z,19.26
2018-08-24T12:12:37.198Z,19.18
2018-08-24T12:13:36.526Z,19.1
2018-08-24T12:14:36.315Z,19.13
2018-08-24T12:15:36.400Z,19.14
2018-08-24T12:16:36.121Z,19.14
2018-08-24T12:17:36.081Z,19.12
2018-08-24T12:18:36.478Z,19.08
2018-08-24T12:19:36.129Z,19.07
2018-08-24T12:20:36.162Z,19.06
2018-08-24T12:21:36.634Z,19.09
2018-08-24T12:22:36.173Z,19.15
2018-08-24T12:23:36.198Z,19.08
2018-08-24T12:24:37.341Z,19.13
2018-08-24T12:25:36.511Z,19.14
2018-08-24T12:26:36.741Z,19.16
2018-08-24T12:27:36.338Z,19.22
2018-08-24T12:28:36.347Z,19.27
2018-08-24T12:29:36.201Z,19.2
2018-08-24T12:30:36.237Z,19.2
2018-08-24T12:31:36.115Z,19.19
2018-08-24T12:32:36.099Z,19.18
2018-08-24T12:33:36.232Z,19.19
2018-08-24T12:34:36.736Z,19.19
2018-08-24T12:35:36.118Z,19.22
2018-08-24T12:36:36.409Z,19.24
2018-08-24T12:37:36.153Z,19.29
2018-08-24T12:38:36.240Z,19.35
2018-08-24T12:39:36.231Z,19.42
2018-08-24T12:40:36.454Z,19.48
2018-08-24T12:41:36.316Z,19.46
2018-08-24T12:42:37.358Z,19.37
2018-08-24T12:43:37.349Z,19.44
2018-08-24T12:44:36.103Z,19.48
2018-08-24T12:45:36.433Z,19.54
2018-08-24T12:46:36.240Z,19.56
2018-08-24T12:47:36.225Z,19.61
2018-08-24T12:48:36.776Z,19.67
2018-08-24T12:49:36.271Z,19.72
2018-08-24T12:50:36.145Z,19.78
2018-08-24T12:51:36.375Z,19.81
2018-08-24T12:52:36.382Z,19.85
2018-08-24T12:53:36.242Z,19.87
2018-08-24T12:54:38.489Z,19.92
2018-08-24T12:55:36.168Z,19.94
2018-08-24T12:56:36.095Z,19.96